Time;durP1;ratioP1;P1;durP2;ratioP2;P2;SDS_P1;SDS_P2;PMS_P1;PMS_P2;Temp;Humidity;BMP_temperature;BMP_pressure;BME280_temperature;BME280_humidity;BME280_pressure;Samples;Min_cycle;Max_cycle;Signal;HPM_P1;HPM_P2
2024/01/01 00:12:15;;;;;;;28.33;12.75;;;9.20;99.90;;;;;;4948423;28;20114;-89
2024/01/01 00:18:20;;;;;;;;;;;;;;;;;;;;;
2024/01/01 00:21:09;;;;;;;;;;;;;;;;;;;;;
2024/01/01 00:24:17;;;;;;;22.52;9.70;;;9.10;99.90;;;;;;4940847;28;20049;-90
2024/01/01 00:27:33;;;;;;;;;;;;;;;;;;;;;
2024/01/01 00:30:50;;;;;;;17.30;6.85;;;9.10;99.90;;;;;;4941890;28;20031;-89
2024/01/01 00:33:47;;;;;;;14.68;5.85;;;9.10;99.90;;;;;;4967552;28;20031;-89
2024/01/01 00:36:18;;;;;;;14.35;4.15;;;9.10;99.90;;;;;;4957485;28;20026;-91
2024/01/01 00:45:56;;;;;;;20.77;6.47;;;9.00;99.90;;;;;;4942761;28;20057;-89
2024/01/01 00:48:24;;;;;;;9.35;3.90;;;9.00;99.90;;;;;;4946016;28;20039;-89
2024/01/01 00:50:50;;;;;;;13.27;4.25;;;9.00;99.90;;;;;;4942646;28;20450;-87
2024/01/01 00:53:15;;;;;;;12.73;3.83;;;9.10;99.90;;;;;;4946797;28;20031;-87
2024/01/01 00:55:41;;;;;;;11.00;3.60;;;9.10;99.90;;;;;;4946982;28;20038;-87
2024/01/01 00:58:06;;;;;;;10.32;3.83;;;9.10;99.90;;;;;;4956698;28;20023;-90
2024/01/01 01:00:32;;;;;;;13.13;3.90;;;9.00;99.90;;;;;;4945589;28;20024;-89
2024/01/01 01:02:58;;;;;;;7.22;3.03;;;9.00;99.90;;;;;;4948807;28;20146;-88
2024/01/01 01:05:25;;;;;;;8.93;3.00;;;9.00;99.90;;;;;;4960112;28;20115;-89
2024/01/01 01:07:51;;;;;;;7.88;2.70;;;9.00;99.90;;;;;;4948440;28;20569;-89
2024/01/01 01:10:17;;;;;;;5.18;2.08;;;9.00;99.90;;;;;;4947160;29;20184;-90
2024/01/01 01:12:42;;;;;;;6.50;2.58;;;9.10;99.90;;;;;;4947646;28;20027;-89
2024/01/01 01:15:09;;;;;;;8.02;2.67;;;9.10;99.90;;;;;;4943570;28;20078;-87
2024/01/01 01:17:34;;;;;;;7.20;2.58;;;9.00;99.90;;;;;;4973041;28;20030;-88
2024/01/01 01:20:00;;;;;;;10.90;2.22;;;9.00;99.90;;;;;;4948302;28;20035;-89
2024/01/01 01:22:25;;;;;;;5.63;2.30;;;9.00;99.90;;;;;;4948690;28;20026;-88
2024/01/01 01:24:51;;;;;;;12.45;3.20;;;9.10;99.90;;;;;;4948063;28;20038;-89
2024/01/01 01:27:17;;;;;;;6.55;2.47;;;9.00;99.90;;;;;;4948854;28;20027;-89
2024/01/01 01:29:42;;;;;;;8.32;2.97;;;9.20;99.90;;;;;;4948938;29;20129;-89
2024/01/01 01:32:10;;;;;;;7.32;2.85;;;9.10;99.90;;;;;;4948784;29;20118;-90
2024/01/01 01:34:38;;;;;;;;;;;9.00;99.90;;;;;;4949103;28;20035;-90
2024/01/01 01:37:06;;;;;;;;;;;9.10;99.90;;;;;;4948783;28;20512;-89
2024/01/01 01:39:33;;;;;;;11.45;2.80;;;9.10;99.90;;;;;;4948931;29;19950;-90
2024/01/01 01:41:58;;;;;;;6.70;2.53;;;9.10;99.90;;;;;;4948450;28;20023;-90
2024/01/01 01:44:27;;;;;;;10.80;2.80;;;9.10;99.90;;;;;;4953888;28;20113;-90
2024/01/01 01:46:53;;;;;;;9.73;3.03;;;9.10;99.90;;;;;;4948984;28;20078;-89
2024/01/01 01:49:18;;;;;;;6.68;2.78;;;9.10;99.90;;;;;;4948553;29;20031;-89
2024/01/01 01:51:47;;;;;;;9.63;2.92;;;9.10;99.90;;;;;;4945250;29;20387;-88
2024/01/01 01:54:13;;;;;;;5.45;2.10;;;9.10;99.90;;;;;;5027531;28;20034;-89
2024/01/01 01:56:39;;;;;;;9.07;2.83;;;9.10;99.90;;;;;;4948618;28;20027;-89
2024/01/01 01:59:06;;;;;;;11.45;3.47;;;9.10;99.90;;;;;;4957861;28;20129;-90
2024/01/01 02:01:31;;;;;;;10.93;2.47;;;9.20;99.90;;;;;;4961023;28;20032;-88
2024/01/01 02:03:57;;;;;;;10.50;2.97;;;9.20;99.90;;;;;;4946684;28;20028;-90
2024/01/01 02:06:24;;;;;;;13.13;3.38;;;9.20;99.90;;;;;;4949096;28;20031;-89
2024/01/01 02:08:50;;;;;;;11.52;2.95;;;9.30;99.90;;;;;;4950453;28;20550;-89
2024/01/01 02:11:16;;;;;;;9.30;3.47;;;9.20;99.90;;;;;;4950442;29;20027;-89
2024/01/01 02:13:43;;;;;;;8.48;2.70;;;9.20;99.90;;;;;;4950857;28;20402;-88
2024/01/01 02:16:11;;;;;;;7.68;2.35;;;9.20;99.90;;;;;;4950438;28;20031;-87
2024/01/01 02:18:37;;;;;;;8.48;3.08;;;9.20;99.90;;;;;;4950206;29;20028;-90
2024/01/01 02:21:03;;;;;;;7.72;2.58;;;9.20;99.90;;;;;;4952421;28;20034;-89
2024/01/01 02:23:30;;;;;;;6.70;2.75;;;9.20;99.90;;;;;;4949866;28;20027;-89
2024/01/01 02:25:56;;;;;;;10.65;2.40;;;9.30;99.90;;;;;;4966519;28;20608;-90
2024/01/01 02:28:22;;;;;;;5.60;2.65;;;9.20;99.90;;;;;;4951978;28;20030;-89
2024/01/01 02:30:47;;;;;;;9.95;3.40;;;9.30;99.90;;;;;;4958648;28;20122;-90
2024/01/01 02:33:15;;;;;;;14.07;3.50;;;9.20;99.90;;;;;;4948345;28;20676;-90
2024/01/01 02:35:41;;;;;;;15.98;3.10;;;9.20;99.90;;;;;;4958649;28;20035;-89
2024/01/01 02:38:09;;;;;;;10.75;3.10;;;9.20;99.90;;;;;;4959958;28;20027;-87
2024/01/01 02:40:35;;;;;;;8.52;2.97;;;9.20;99.90;;;;;;4949443;28;20146;-89
2024/01/01 02:43:01;;;;;;;7.40;2.55;;;9.30;99.90;;;;;;4949831;28;20034;-89
2024/01/01 02:45:29;;;;;;;7.25;2.30;;;9.20;99.90;;;;;;4950405;28;20038;-88
2024/01/01 02:47:57;;;;;;;7.53;2.47;;;9.20;99.90;;;;;;4947955;28;20035;-89
2024/01/01 02:50:25;;;;;;;10.50;3.40;;;9.20;99.90;;;;;;5033988;28;20315;-90
2024/01/01 02:52:51;;;;;;;9.93;3.10;;;9.20;99.90;;;;;;4953837;28;20035;-90
2024/01/01 02:55:18;;;;;;;11.10;2.50;;;9.20;99.90;;;;;;4952401;28;20031;-89
2024/01/01 02:57:43;;;;;;;6.50;2.43;;;9.20;99.90;;;;;;4948502;28;20027;-89
2024/01/01 03:00:10;;;;;;;7.82;2.45;;;9.20;99.90;;;;;;4949249;28;20034;-89
2024/01/01 03:02:38;;;;;;;9.88;2.75;;;9.20;99.90;;;;;;4932622;28;20608;-89
2024/01/01 03:05:06;;;;;;;10.93;3.05;;;9.20;99.90;;;;;;4946784;28;20102;-90
2024/01/01 03:07:35;;;;;;;10.30;2.60;;;9.20;99.90;;;;;;4986510;28;20074;-90
2024/01/01 03:10:12;;;;;;;7.00;3.00;;;9.20;99.90;;;;;;4948773;28;20038;-89
2024/01/01 03:12:38;;;;;;;5.60;2.65;;;9.20;99.90;;;;;;4963851;28;20035;-91
2024/01/01 03:15:04;;;;;;;8.73;3.05;;;9.20;99.90;;;;;;4949766;28;20739;-89
2024/01/01 03:17:31;;;;;;;8.82;3.08;;;9.20;99.90;;;;;;4948460;28;20086;-88
2024/01/01 03:19:56;;;;;;;9.10;2.30;;;9.20;99.90;;;;;;4963998;28;20039;-90
2024/01/01 03:22:22;;;;;;;8.55;2.97;;;9.20;99.90;;;;;;4948807;28;20604;-89
2024/01/01 03:24:48;;;;;;;11.70;3.03;;;9.20;99.90;;;;;;4949076;28;20050;-89
2024/01/01 03:27:13;;;;;;;11.38;2.97;;;9.20;99.90;;;;;;4945098;29;20042;-89
2024/01/01 03:29:42;;;;;;;6.65;2.55;;;9.20;99.90;;;;;;4950031;28;20154;-89
2024/01/01 03:32:07;;;;;;;9.25;2.92;;;9.20;99.90;;;;;;4973387;28;20031;-89
2024/01/01 03:34:34;;;;;;;9.80;2.55;;;9.20;99.90;;;;;;4949925;28;20030;-89
2024/01/01 03:37:00;;;;;;;8.45;2.70;;;9.20;99.90;;;;;;4960287;28;20032;-90
2024/01/01 03:39:26;;;;;;;10.65;2.67;;;9.20;99.90;;;;;;4951515;29;20031;-90
2024/01/01 03:41:52;;;;;;;11.05;3.28;;;9.20;99.90;;;;;;4947867;28;20177;-91
2024/01/01 03:44:17;;;;;;;12.13;3.00;;;9.20;99.90;;;;;;4946496;28;20032;-90
2024/01/01 03:46:43;;;;;;;12.27;3.17;;;9.20;99.90;;;;;;4958802;28;20033;-89
2024/01/01 03:49:11;;;;;;;11.73;2.67;;;9.20;99.90;;;;;;4946756;29;20106;-90
2024/01/01 03:51:36;;;;;;;5.82;2.42;;;9.20;99.90;;;;;;4950244;28;20027;-90
2024/01/01 03:54:04;;;;;;;16.33;2.63;;;9.30;99.90;;;;;;4940993;29;20028;-89
2024/01/01 03:56:30;;;;;;;7.53;2.65;;;9.20;99.90;;;;;;4955324;28;20020;-89
2024/01/01 03:58:56;;;;;;;10.40;3.10;;;9.20;99.90;;;;;;4948685;28;20035;-90
2024/01/01 04:01:24;;;;;;;9.15;2.45;;;9.20;99.90;;;;;;4947209;28;20114;-90
2024/01/01 04:03:50;;;;;;;11.27;2.63;;;9.20;99.90;;;;;;4933329;28;20039;-89
2024/01/01 04:06:17;;;;;;;5.68;2.47;;;9.30;99.90;;;;;;4950669;28;20031;-89
2024/01/01 04:08:42;;;;;;;7.75;3.20;;;9.30;99.90;;;;;;4950273;28;20035;-90
2024/01/01 04:11:08;;;;;;;9.82;2.53;;;9.30;99.90;;;;;;4949947;29;20513;-90
2024/01/01 04:13:34;;;;;;;8.40;2.70;;;9.30;99.90;;;;;;4947616;28;20085;-91
2024/01/01 04:16:01;;;;;;;10.02;2.58;;;9.20;99.90;;;;;;4945702;29;20407;-88
2024/01/01 04:18:26;;;;;;;8.90;3.20;;;9.20;99.90;;;;;;4956914;28;20047;-90
2024/01/01 04:20:54;;;;;;;7.18;3.08;;;9.20;99.90;;;;;;4948604;28;20062;-90
2024/01/01 04:23:20;;;;;;;8.00;2.80;;;9.10;99.90;;;;;;4948807;28;20531;-91
2024/01/01 04:25:48;;;;;;;12.48;4.28;;;9.20;99.90;;;;;;4948001;28;20062;-89
2024/01/01 04:28:13;;;;;;;8.15;3.20;;;9.10;99.90;;;;;;4948760;28;20114;-89
2024/01/01 04:30:39;;;;;;;9.88;3.30;;;9.10;99.90;;;;;;4947758;29;20135;-90
2024/01/01 04:33:07;;;;;;;6.68;3.33;;;9.10;99.90;;;;;;4953232;28;20043;-90
2024/01/01 04:35:32;;;;;;;8.48;3.40;;;9.00;99.90;;;;;;4947891;28;20029;-89
2024/01/01 04:38:00;;;;;;;12.88;4.10;;;9.00;99.90;;;;;;4984919;28;20035;-89
2024/01/01 04:40:26;;;;;;;;;;;9.10;99.90;;;;;;4949830;28;20021;-91
2024/01/01 04:42:55;;;;;;;7.15;3.38;;;9.10;99.90;;;;;;4960027;28;19917;-90
2024/01/01 04:45:23;;;;;;;6.82;3.10;;;9.00;99.90;;;;;;4948006;28;20465;-89
2024/01/01 04:47:48;;;;;;;8.45;3.47;;;9.20;99.90;;;;;;4948750;28;20114;-89
2024/01/01 04:50:14;;;;;;;13.40;3.97;;;9.10;99.90;;;;;;4948725;28;20028;-90
2024/01/01 04:52:42;;;;;;;13.25;3.42;;;9.00;99.90;;;;;;4942486;29;20419;-90
2024/01/01 04:55:07;;;;;;;6.25;3.08;;;9.00;99.90;;;;;;4948884;28;20023;-90
2024/01/01 04:57:35;;;;;;;12.93;3.58;;;9.00;99.90;;;;;;4949191;28;20031;-90
2024/01/01 05:00:02;;;;;;;10.70;3.45;;;9.00;99.90;;;;;;4948488;28;20616;-89
2024/01/01 05:02:28;;;;;;;8.32;3.10;;;9.00;99.90;;;;;;4946703;29;20544;-90
2024/01/01 05:04:53;;;;;;;14.40;3.42;;;9.00;99.90;;;;;;4964295;28;20035;-90
2024/01/01 05:07:19;;;;;;;6.43;3.53;;;9.00;99.90;;;;;;4953102;28;20114;-89
2024/01/01 05:09:45;;;;;;;7.05;3.25;;;8.90;99.90;;;;;;4948549;29;20030;-89
2024/01/01 05:12:13;;;;;;;8.07;3.10;;;9.00;99.90;;;;;;4980501;28;20027;-89
2024/01/01 05:14:39;;;;;;;9.98;3.55;;;9.00;99.90;;;;;;4975192;28;20639;-90
2024/01/01 05:17:05;;;;;;;11.38;3.47;;;8.90;99.90;;;;;;4946020;28;20046;-92
2024/01/01 05:19:30;;;;;;;8.15;3.40;;;9.00;99.90;;;;;;4951244;28;20042;-90
2024/01/01 05:21:58;;;;;;;10.38;3.60;;;8.90;99.90;;;;;;4948774;29;20506;-90
2024/01/01 05:24:24;;;;;;;11.95;4.13;;;8.90;99.90;;;;;;4946967;28;20031;-89
2024/01/01 05:26:49;;;;;;;11.70;3.78;;;8.90;99.90;;;;;;4950313;29;20031;-89
2024/01/01 05:29:15;;;;;;;10.20;3.70;;;8.90;99.90;;;;;;4952416;28;20049;-90
2024/01/01 05:31:40;;;;;;;10.05;3.72;;;9.00;99.90;;;;;;4952979;29;20434;-91
2024/01/01 05:34:06;;;;;;;15.38;3.35;;;8.90;99.90;;;;;;4951812;28;20032;-89
2024/01/01 05:36:36;;;;;;;5.82;3.05;;;8.80;99.90;;;;;;4951446;28;20032;-90
2024/01/01 05:39:03;;;;;;;11.60;3.78;;;8.90;99.90;;;;;;4955600;28;20545;-90
2024/01/01 05:41:31;;;;;;;7.32;3.15;;;8.80;99.90;;;;;;4952280;28;20038;-91
2024/01/01 05:44:01;;;;;;;10.40;3.53;;;8.90;99.90;;;;;;4950934;28;20027;-90
2024/01/01 05:46:26;;;;;;;11.20;3.30;;;8.80;99.90;;;;;;4962169;28;20031;-90
2024/01/01 05:48:52;;;;;;;10.55;3.80;;;8.80;99.90;;;;;;4950076;29;20407;-89
2024/01/01 05:51:19;;;;;;;9.85;3.83;;;8.90;99.90;;;;;;4945469;28;20414;-89
2024/01/01 05:53:44;;;;;;;12.50;3.60;;;8.90;99.90;;;;;;5031977;28;20105;-91
2024/01/01 05:56:10;;;;;;;9.43;3.42;;;8.80;99.90;;;;;;4951320;28;20490;-90
2024/01/01 05:58:35;;;;;;;11.57;3.10;;;8.90;99.90;;;;;;4949098;28;20031;-89
2024/01/01 06:01:03;;;;;;;9.98;2.80;;;9.00;99.90;;;;;;4949797;28;20122;-88
2024/01/01 06:03:29;;;;;;;6.50;2.33;;;8.80;99.90;;;;;;4950111;28;20020;-88
2024/01/01 06:05:55;;;;;;;12.10;2.45;;;8.80;99.90;;;;;;4949612;28;20036;-89
2024/01/01 06:08:20;;;;;;;5.57;1.75;;;8.80;99.90;;;;;;4962344;28;20042;-89
2024/01/01 06:10:46;;;;;;;9.13;2.10;;;8.80;99.90;;;;;;4951366;29;20050;-89
2024/01/01 06:13:12;;;;;;;6.50;2.25;;;8.80;99.90;;;;;;4951336;28;20053;-89
2024/01/01 06:15:40;;;;;;;8.05;2.25;;;8.80;99.90;;;;;;4952667;28;20272;-90
2024/01/01 06:18:06;;;;;;;6.72;2.05;;;8.70;99.90;;;;;;4935911;29;20054;-89
2024/01/01 06:20:32;;;;;;;8.00;2.00;;;8.70;99.90;;;;;;4951935;28;20601;-89
2024/01/01 06:23:00;;;;;;;10.45;2.75;;;8.70;99.90;;;;;;4951005;28;20034;-90
2024/01/01 06:25:26;;;;;;;;;;;8.70;99.90;;;;;;4951444;28;20066;-90
2024/01/01 06:27:51;;;;;;;4.05;1.75;;;8.70;99.90;;;;;;4951796;28;19948;-89
2024/01/01 06:30:17;;;;;;;3.95;1.50;;;8.80;99.90;;;;;;4950727;29;20292;-90
2024/01/01 06:32:43;;;;;;;10.93;2.10;;;8.70;99.90;;;;;;4947648;29;20040;-91
2024/01/01 06:35:08;;;;;;;9.75;2.15;;;8.70;99.90;;;;;;4948211;28;20063;-91
2024/01/01 06:37:34;;;;;;;5.10;1.88;;;8.60;99.90;;;;;;4949486;28;20107;-90
2024/01/01 06:39:59;;;;;;;6.20;1.85;;;8.70;99.90;;;;;;4933896;29;20032;-89
2024/01/01 06:42:25;;;;;;;11.23;2.13;;;8.80;99.90;;;;;;4950182;28;20051;-90
2024/01/01 06:44:51;;;;;;;6.78;2.15;;;8.70;99.90;;;;;;4951418;29;20531;-90
2024/01/01 06:47:17;;;;;;;9.13;2.60;;;8.60;99.90;;;;;;4972845;28;20046;-90
2024/01/01 06:49:42;;;;;;;8.23;2.22;;;8.60;99.90;;;;;;4948554;28;20042;-89
2024/01/01 06:52:08;;;;;;;12.90;2.70;;;8.70;99.90;;;;;;4948307;28;20108;-90
2024/01/01 06:54:37;;;;;;;9.60;2.58;;;8.60;99.90;;;;;;4947863;28;20039;-90
2024/01/01 06:57:03;;;;;;;7.72;2.22;;;8.60;99.90;;;;;;4974646;28;20031;-90
2024/01/01 06:59:29;;;;;;;7.07;1.70;;;8.50;99.90;;;;;;4951164;29;20027;-90
2024/01/01 07:01:58;;;;;;;8.07;2.63;;;8.50;99.90;;;;;;4950500;29;20142;-91
2024/01/01 07:04:23;;;;;;;;;;;8.60;99.90;;;;;;4953248;28;20023;-87
2024/01/01 07:06:49;;;;;;;4.72;1.90;;;8.50;99.90;;;;;;4949845;28;20001;-89
2024/01/01 07:09:14;;;;;;;6.80;1.90;;;8.50;99.90;;;;;;4950635;29;20113;-90
2024/01/01 07:11:40;;;;;;;5.45;1.85;;;8.40;99.90;;;;;;4951202;28;20513;-89
2024/01/01 07:14:09;;;;;;;7.72;1.75;;;8.40;99.90;;;;;;4952033;28;20023;-90
2024/01/01 07:16:35;;;;;;;9.02;2.13;;;8.40;99.90;;;;;;4934886;28;20028;-89
2024/01/01 07:19:01;;;;;;;11.13;2.72;;;8.40;99.90;;;;;;4949686;28;20549;-88
2024/01/01 07:21:26;;;;;;;8.50;1.98;;;8.40;99.90;;;;;;4946980;29;20110;-88
2024/01/01 07:23:52;;;;;;;3.65;1.73;;;8.40;99.90;;;;;;4946322;28;20482;-89
2024/01/01 07:26:17;;;;;;;5.53;1.60;;;8.40;99.90;;;;;;4958923;28;20469;-90
2024/01/01 07:28:43;;;;;;;6.65;2.20;;;8.40;99.90;;;;;;4960486;28;20039;-90
2024/01/01 07:31:10;;;;;;;4.80;1.90;;;8.50;99.90;;;;;;4943892;28;20027;-90
2024/01/01 07:33:36;;;;;;;9.88;1.88;;;8.40;99.90;;;;;;4952047;28;20035;-90
2024/01/01 07:36:01;;;;;;;6.60;1.80;;;8.40;99.90;;;;;;4950199;28;20049;-89
2024/01/01 07:38:27;;;;;;;6.40;1.95;;;8.50;99.90;;;;;;4965511;28;20114;-89
2024/01/01 07:40:53;;;;;;;9.00;1.70;;;8.50;99.90;;;;;;4952447;28;20083;-90
2024/01/01 07:43:20;;;;;;;6.10;1.33;;;8.50;99.90;;;;;;4951836;29;20110;-90
2024/01/01 07:45:48;;;;;;;7.85;2.00;;;8.50;99.90;;;;;;4951659;28;20028;-90
2024/01/01 07:48:13;;;;;;;5.30;1.83;;;8.50;99.90;;;;;;4945303;29;20043;-90
2024/01/01 07:50:39;;;;;;;14.40;2.20;;;8.50;99.90;;;;;;4971740;28;20406;-90
2024/01/01 07:53:06;;;;;;;8.15;1.90;;;8.50;99.90;;;;;;4948235;28;20410;-90
2024/01/01 07:55:33;;;;;;;6.40;1.65;;;8.50;99.90;;;;;;4935140;28;20134;-90
2024/01/01 07:57:59;;;;;;;5.07;1.70;;;8.50;99.90;;;;;;4950323;29;20058;-89
2024/01/01 08:00:25;;;;;;;16.45;2.05;;;8.50;99.90;;;;;;4948423;28;20039;-90
2024/01/01 08:02:50;;;;;;;4.10;1.48;;;8.50;99.90;;;;;;4961523;28;20023;-90
2024/01/01 08:05:16;;;;;;;3.92;1.42;;;8.50;99.90;;;;;;4949819;28;20027;-89
2024/01/01 08:07:47;;;;;;;6.90;1.90;;;8.50;99.90;;;;;;4942103;29;20031;-90
2024/01/01 08:10:14;;;;;;;9.45;2.25;;;8.40;99.90;;;;;;4931858;29;20039;-90
2024/01/01 08:12:41;;;;;;;8.35;1.75;;;8.50;99.90;;;;;;4946827;28;20512;-89
2024/01/01 08:15:07;;;;;;;6.93;1.50;;;8.60;99.90;;;;;;4945954;28;20490;-89
2024/01/01 08:17:35;;;;;;;8.27;1.85;;;8.40;99.90;;;;;;4947130;28;20024;-89
2024/01/01 08:20:04;;;;;;;6.60;1.58;;;8.40;99.90;;;;;;4946011;28;20528;-89
2024/01/01 08:22:29;;;;;;;7.88;2.20;;;8.40;99.90;;;;;;4956282;28;20044;-89
2024/01/01 08:24:55;;;;;;;5.45;1.55;;;8.50;99.90;;;;;;4948104;28;20429;-88
2024/01/01 08:27:23;;;;;;;6.80;1.90;;;8.40;99.90;;;;;;4998505;28;20063;-88
2024/01/01 08:29:49;;;;;;;7.55;2.22;;;8.40;99.90;;;;;;4968267;28;20080;-91
2024/01/01 08:32:15;;;;;;;8.65;3.28;;;8.40;99.90;;;;;;4946074;29;20414;-89
2024/01/01 08:34:42;;;;;;;9.10;2.28;;;8.40;99.90;;;;;;4948444;28;20697;-92
2024/01/01 08:37:08;;;;;;;6.50;1.73;;;8.40;99.90;;;;;;4942626;29;20088;-89
2024/01/01 08:39:34;;;;;;;8.25;1.63;;;8.40;99.90;;;;;;4948662;28;20035;-89
2024/01/01 08:41:59;;;;;;;10.57;1.50;;;8.40;99.90;;;;;;4947651;28;20114;-91
2024/01/01 08:44:25;;;;;;;8.38;1.52;;;8.40;99.90;;;;;;4947982;29;20118;-90
2024/01/01 08:46:53;;;;;;;9.93;1.60;;;8.50;99.90;;;;;;4947090;29;20656;-88
2024/01/01 08:49:18;;;;;;;7.37;1.60;;;8.40;99.90;;;;;;4950213;28;20027;-88
2024/01/01 08:51:44;;;;;;;8.13;1.10;;;8.40;99.90;;;;;;4950135;28;20508;-90
2024/01/01 08:54:12;;;;;;;9.85;1.80;;;8.40;99.90;;;;;;4944246;28;20032;-89
2024/01/01 08:56:38;;;;;;;;;;;8.40;99.90;;;;;;4965085;28;20272;-90
2024/01/01 08:59:03;;;;;;;10.05;1.65;;;8.40;99.90;;;;;;4958624;28;19919;-89
2024/01/01 09:01:29;;;;;;;9.57;1.98;;;8.40;99.90;;;;;;4954971;28;20027;-90
2024/01/01 09:03:56;;;;;;;8.02;1.55;;;8.50;99.90;;;;;;4950291;28;20956;-90
2024/01/01 09:06:22;;;;;;;9.77;1.88;;;8.40;99.90;;;;;;4954675;28;20046;-89
2024/01/01 09:08:47;;;;;;;8.45;2.10;;;8.40;99.90;;;;;;4959980;28;20499;-89
2024/01/01 09:11:14;;;;;;;7.50;1.48;;;8.40;99.90;;;;;;4945382;28;20588;-90
2024/01/01 09:13:42;;;;;;;12.07;2.20;;;8.50;99.90;;;;;;4946530;28;20490;-89
2024/01/01 09:16:08;;;;;;;12.52;2.05;;;8.50;99.90;;;;;;4949328;29;20027;-89
2024/01/01 09:18:35;;;;;;;3.00;1.13;;;8.40;99.90;;;;;;4951825;28;20039;-90
2024/01/01 09:21:00;;;;;;;9.18;1.63;;;8.30;99.90;;;;;;4948941;28;20033;-90
2024/01/01 09:23:27;;;;;;;8.73;2.00;;;8.40;99.90;;;;;;4948932;28;20542;-89
2024/01/01 09:25:54;;;;;;;9.02;1.63;;;8.40;99.90;;;;;;4947084;29;20035;-89
2024/01/01 09:28:20;;;;;;;7.55;1.52;;;8.40;99.90;;;;;;4942444;28;20027;-89
2024/01/01 09:30:45;;;;;;;11.75;2.13;;;8.40;99.90;;;;;;4948492;28;20042;-89
2024/01/01 09:33:11;;;;;;;12.35;1.95;;;8.50;99.90;;;;;;4948245;28;20077;-89
2024/01/01 09:35:37;;;;;;;4.60;1.60;;;8.40;99.90;;;;;;4949594;28;20268;-87
2024/01/01 09:38:03;;;;;;;12.32;1.63;;;8.40;99.90;;;;;;4960688;28;20046;-89
2024/01/01 09:40:29;;;;;;;11.98;1.60;;;8.40;99.90;;;;;;4928913;28;20587;-89
2024/01/01 09:42:57;;;;;;;8.68;2.08;;;8.50;99.90;;;;;;4946338;28;20032;-89
2024/01/01 09:45:25;;;;;;;11.93;1.75;;;8.50;99.90;;;;;;4947286;28;20032;-87
2024/01/01 09:47:50;;;;;;;;;;;8.50;99.90;;;;;;4959554;28;20107;-89
2024/01/01 09:50:19;;;;;;;14.95;4.30;;;8.50;99.90;;;;;;4943757;28;20039;-89
2024/01/01 09:52:44;;;;;;;10.68;1.75;;;8.40;99.90;;;;;;4948764;28;20220;-89
2024/01/01 09:55:10;;;;;;;7.25;1.90;;;8.40;99.90;;;;;;4944161;29;20034;-90
2024/01/01 09:57:39;;;;;;;8.43;2.47;;;8.40;99.90;;;;;;4932410;29;20058;-90
2024/01/01 10:00:18;;;;;;;6.75;1.48;;;8.40;99.90;;;;;;4947787;29;20296;-88
2024/01/01 10:02:43;;;;;;;8.18;1.70;;;8.40;99.90;;;;;;4945465;28;20035;-88
2024/01/01 10:05:13;;;;;;;9.90;1.20;;;8.40;99.90;;;;;;4947225;28;20027;-89
2024/01/01 10:07:39;;;;;;;8.40;1.73;;;8.40;99.90;;;;;;4941998;29;20384;-89
2024/01/01 10:10:07;;;;;;;11.10;1.60;;;8.40;99.90;;;;;;4944037;28;20088;-89
2024/01/01 10:12:35;;;;;;;9.05;1.88;;;8.40;99.90;;;;;;4950847;28;20085;-90
2024/01/01 10:15:02;;;;;;;9.65;1.65;;;8.40;99.90;;;;;;4931111;28;20098;-91
2024/01/01 10:17:28;;;;;;;6.20;1.30;;;8.40;99.90;;;;;;4954164;28;20118;-90
2024/01/01 10:20:00;;;;;;;7.32;1.63;;;8.50;99.90;;;;;;4950530;28;20107;-90
2024/01/01 10:22:30;;;;;;;8.85;1.77;;;8.50;99.90;;;;;;4946593;28;20027;-89
2024/01/01 10:25:16;;;;;;;11.02;1.58;;;8.50;99.90;;;;;;4956146;28;20773;-90
2024/01/01 10:27:43;;;;;;;6.68;1.30;;;8.50;99.90;;;;;;4954078;28;20049;-92
2024/01/01 10:30:09;;;;;;;10.13;1.40;;;8.50;99.90;;;;;;4947902;28;20023;-89
2024/01/01 10:32:36;;;;;;;10.10;1.27;;;8.40;99.90;;;;;;4947569;29;20031;-88
2024/01/01 10:35:05;;;;;;;8.70;1.30;;;8.50;99.90;;;;;;4959757;28;20250;-89
2024/01/01 10:37:32;;;;;;;5.03;1.17;;;8.50;99.90;;;;;;4951895;28;20034;-88
2024/01/01 10:40:04;;;;;;;10.98;1.50;;;8.50;99.90;;;;;;4957762;28;20031;-89
2024/01/01 10:42:33;;;;;;;12.60;1.42;;;8.60;99.90;;;;;;4948603;28;20035;-88
2024/01/01 10:45:05;;;;;;;9.52;1.50;;;8.50;99.90;;;;;;4947211;28;20119;-88
2024/01/01 10:47:31;;;;;;;4.75;1.23;;;8.50;99.90;;;;;;4984180;28;20028;-88
2024/01/01 10:50:19;;;;;;;3.47;1.13;;;8.60;99.90;;;;;;4952554;28;20031;-89
2024/01/01 10:53:11;;;;;;;6.25;2.03;;;8.50;99.90;;;;;;4953346;28;20032;-89
2024/01/01 10:55:58;;;;;;;6.10;1.40;;;8.50;99.90;;;;;;4949943;28;20030;-90
2024/01/01 10:58:36;;;;;;;6.85;1.60;;;8.50;99.90;;;;;;4957626;28;20031;-89
2024/01/01 11:01:04;;;;;;;;;;;8.50;99.90;;;;;;4950140;28;20605;-89
2024/01/01 11:03:32;;;;;;;7.60;1.25;;;8.50;99.90;;;;;;4949906;28;19917;-89
2024/01/01 11:05:58;;;;;;;;;;;8.50;99.90;;;;;;4950508;28;20085;-89
2024/01/01 11:08:27;;;;;;;5.35;1.80;;;8.40;99.90;;;;;;4945015;28;19911;-89
2024/01/01 11:10:54;;;;;;;4.60;1.00;;;8.50;99.90;;;;;;4961807;28;20100;-89
2024/01/01 11:13:28;;;;;;;4.63;1.55;;;8.50;99.90;;;;;;4948263;28;20031;-89
2024/01/01 11:16:03;;;;;;;6.00;2.28;;;8.40;99.90;;;;;;4961175;28;20047;-89
2024/01/01 11:18:36;;;;;;;5.78;1.40;;;8.40;99.90;;;;;;4957359;28;20031;-88
2024/01/01 11:21:06;;;;;;;6.65;1.58;;;8.40;99.90;;;;;;4946413;28;20123;-89
2024/01/01 11:23:40;;;;;;;7.97;1.88;;;8.40;99.90;;;;;;4948731;28;20118;-87
2024/01/01 11:26:45;;;;;;;12.13;1.80;;;8.40;99.90;;;;;;4960443;28;20047;-87
2024/01/01 11:29:16;;;;;;;11.15;1.73;;;8.50;99.90;;;;;;4937252;28;20634;-89
2024/01/01 11:31:44;;;;;;;4.63;1.42;;;8.50;99.90;;;;;;4935415;28;20035;-89
2024/01/01 11:34:16;;;;;;;11.70;2.17;;;8.40;99.90;;;;;;4955732;28;20030;-88
2024/01/01 11:36:43;;;;;;;6.30;2.05;;;8.40;99.90;;;;;;4966605;28;20055;-88
2024/01/01 11:39:08;;;;;;;11.85;1.80;;;8.40;99.90;;;;;;4940108;28;20032;-90
2024/01/01 11:41:34;;;;;;;7.85;1.80;;;8.40;99.90;;;;;;4935166;28;20037;-89
2024/01/01 11:44:14;;;;;;;7.68;1.90;;;8.40;99.90;;;;;;4958239;28;20060;-89
2024/01/01 11:46:40;;;;;;;5.18;1.33;;;8.40;99.90;;;;;;4917530;28;20055;-89
2024/01/01 11:49:07;;;;;;;11.95;1.90;;;8.40;99.90;;;;;;4947910;28;20019;-88
2024/01/01 11:51:57;;;;;;;7.93;1.73;;;8.40;99.90;;;;;;4914056;28;20032;-89
2024/01/01 11:54:27;;;;;;;7.20;1.45;;;8.50;99.90;;;;;;4972371;28;20404;-88
2024/01/01 11:56:56;;;;;;;10.93;2.17;;;8.50;99.90;;;;;;4950356;28;20094;-90
2024/01/01 11:59:24;;;;;;;5.80;1.60;;;8.60;99.90;;;;;;4948218;28;20054;-89
2024/01/01 12:01:51;;;;;;;5.82;1.35;;;8.60;99.90;;;;;;4949770;28;20061;-90
2024/01/01 12:04:17;;;;;;;7.13;1.43;;;8.60;99.90;;;;;;4951120;28;20466;-89
2024/01/01 12:06:50;;;;;;;8.82;1.90;;;8.50;99.90;;;;;;4952138;28;20035;-88
2024/01/01 12:09:15;;;;;;;5.40;1.48;;;8.50;99.90;;;;;;4948278;28;20039;-90
2024/01/01 12:11:42;;;;;;;5.70;1.73;;;8.50;99.90;;;;;;4946166;28;20066;-88
2024/01/01 12:14:08;;;;;;;8.50;1.73;;;8.50;99.90;;;;;;4943884;28;20047;-90
2024/01/01 12:16:36;;;;;;;4.40;1.30;;;8.60;99.90;;;;;;4947757;28;20027;-90
2024/01/01 12:19:05;;;;;;;8.55;2.10;;;8.60;99.90;;;;;;4938232;29;20469;-88
2024/01/01 12:21:40;;;;;;;2.85;1.13;;;8.60;99.90;;;;;;4952766;28;20031;-88
2024/01/01 12:24:09;;;;;;;8.52;1.45;;;8.60;99.90;;;;;;4946640;28;20035;-89
2024/01/01 12:26:35;;;;;;;9.07;1.33;;;8.80;99.90;;;;;;4930807;28;20089;-89
2024/01/01 12:29:17;;;;;;;3.90;1.25;;;8.70;99.90;;;;;;4948681;28;20031;-90
2024/01/01 12:31:45;;;;;;;8.02;1.75;;;8.70;99.90;;;;;;4932149;28;20746;-89
2024/01/01 12:34:19;;;;;;;9.93;2.03;;;8.80;99.90;;;;;;4945428;28;20027;-89
2024/01/01 12:36:47;;;;;;;4.72;1.30;;;8.90;99.90;;;;;;4951261;28;20114;-88
2024/01/01 12:39:17;;;;;;;6.25;1.40;;;8.70;99.90;;;;;;4954286;28;20122;-90
2024/01/01 12:41:44;;;;;;;7.68;1.77;;;8.70;99.90;;;;;;4948066;28;20039;-88
2024/01/01 12:44:10;;;;;;;7.50;2.40;;;8.80;99.90;;;;;;4949213;28;20101;-91
2024/01/01 12:46:36;;;;;;;6.68;1.40;;;8.80;99.90;;;;;;4958692;28;20031;-89
2024/01/01 12:49:02;;;;;;;11.77;1.58;;;8.80;99.90;;;;;;4952086;28;20661;-89
2024/01/01 12:51:28;;;;;;;6.68;1.58;;;8.80;99.90;;;;;;4947810;28;20043;-91
2024/01/01 12:53:57;;;;;;;12.50;2.05;;;8.80;99.90;;;;;;4948462;28;20042;-88
2024/01/01 12:56:23;;;;;;;8.05;1.90;;;8.90;99.90;;;;;;4950679;28;20088;-88
2024/01/01 12:58:49;;;;;;;6.30;1.48;;;8.80;99.90;;;;;;4964615;28;20030;-89
2024/01/01 13:01:15;;;;;;;6.15;1.48;;;8.80;99.90;;;;;;4944065;28;20027;-88
2024/01/01 13:03:43;;;;;;;6.32;1.58;;;8.80;99.90;;;;;;4965377;28;20081;-88
2024/01/01 13:06:19;;;;;;;7.03;1.52;;;8.80;99.90;;;;;;4958035;28;20050;-89
2024/01/01 13:08:47;;;;;;;10.65;2.03;;;8.90;99.90;;;;;;4948516;28;20027;-90
2024/01/01 13:11:15;;;;;;;10.07;2.13;;;8.80;99.90;;;;;;4940275;28;20059;-89
2024/01/01 13:13:42;;;;;;;8.68;1.95;;;8.90;99.90;;;;;;4947651;28;20122;-89
2024/01/01 13:16:08;;;;;;;6.63;1.88;;;8.80;99.90;;;;;;4946646;29;20040;-89
2024/01/01 13:18:37;;;;;;;6.88;1.60;;;8.80;99.90;;;;;;4960062;28;20084;-88
2024/01/01 13:21:03;;;;;;;6.53;1.80;;;8.80;99.90;;;;;;4944783;28;20071;-89
2024/01/01 13:23:29;;;;;;;10.05;2.58;;;8.80;99.90;;;;;;4944477;28;20028;-91
2024/01/01 13:25:57;;;;;;;7.88;2.60;;;8.80;99.90;;;;;;4947393;28;20085;-89